sensor_id;sensor_type;location;lat;lon;timestamp;temperature;humidity
7686;DHT22;3885;51.474;-2.576;2022-10-29T00:00:17;13.50;99.90
7686;DHT22;3885;51.474;-2.576;2022-10-29T00:02:44;13.50;99.90
7686;DHT22;3885;51.474;-2.576;2022-10-29T00:05:11;13.50;99.90
7686;DHT22;3885;51.474;-2.576;2022-10-29T00:07:38;13.50;99.90
7686;DHT22;3885;51.474;-2.576;2022-10-29T00:10:06;13.50;99.90
7686;DHT22;3885;51.474;-2.576;2022-10-29T00:12:34;13.50;99.90
7686;DHT22;3885;51.474;-2.576;2022-10-29T00:15:02;13.60;99.90
7686;DHT22;3885;51.474;-2.576;2022-10-29T00:17:29;13.50;99.90
7686;DHT22;3885;51.474;-2.576;2022-10-29T00:22:24;13.50;99.90
7686;DHT22;3885;51.474;-2.576;2022-10-29T00:24:50;13.60;99.90
7686;DHT22;3885;51.474;-2.576;2022-10-29T00:27:17;13.60;99.90
7686;DHT22;3885;51.474;-2.576;2022-10-29T00:29:46;13.60;99.90
7686;DHT22;3885;51.474;-2.576;2022-10-29T00:32:13;13.70;99.90
7686;DHT22;3885;51.474;-2.576;2022-10-29T00:34:39;13.70;99.90
7686;DHT22;3885;51.474;-2.576;2022-10-29T00:37:06;13.70;99.90
7686;DHT22;3885;51.474;-2.576;2022-10-29T00:39:33;13.70;99.90
7686;DHT22;3885;51.474;-2.576;2022-10-29T00:42:01;13.70;99.90
7686;DHT22;3885;51.474;-2.576;2022-10-29T00:44:31;13.70;99.90
7686;DHT22;3885;51.474;-2.576;2022-10-29T00:47:10;13.70;99.90
7686;DHT22;3885;51.474;-2.576;2022-10-29T00:49:38;13.70;99.90
7686;DHT22;3885;51.474;-2.576;2022-10-29T00:52:07;13.70;99.90
7686;DHT22;3885;51.474;-2.576;2022-10-29T00:54:38;13.70;99.90
7686;DHT22;3885;51.474;-2.576;2022-10-29T00:57:07;13.80;99.90
7686;DHT22;3885;51.474;-2.576;2022-10-29T00:59:36;13.80;99.90
7686;DHT22;3885;51.474;-2.576;2022-10-29T01:02:04;13.70;99.90
7686;DHT22;3885;51.474;-2.576;2022-10-29T01:04:31;13.70;99.90
7686;DHT22;3885;51.474;-2.576;2022-10-29T01:06:59;13.70;99.90
7686;DHT22;3885;51.474;-2.576;2022-10-29T01:09:26;13.70;99.90
7686;DHT22;3885;51.474;-2.576;2022-10-29T01:14:50;13.70;99.90
7686;DHT22;3885;51.474;-2.576;2022-10-29T01:17:27;13.70;99.90
7686;DHT22;3885;51.474;-2.576;2022-10-29T01:20:23;13.80;99.90
7686;DHT22;3885;51.474;-2.576;2022-10-29T01:23:03;13.80;99.90
7686;DHT22;3885;51.474;-2.576;2022-10-29T01:25:51;13.80;99.90
7686;DHT22;3885;51.474;-2.576;2022-10-29T01:28:32;13.80;99.90
7686;DHT22;3885;51.474;-2.576;2022-10-29T01:31:15;13.80;99.90
7686;DHT22;3885;51.474;-2.576;2022-10-29T01:33:51;13.80;99.90
7686;DHT22;3885;51.474;-2.576;2022-10-29T01:36:27;13.80;99.90
7686;DHT22;3885;51.474;-2.576;2022-10-29T01:39:02;13.80;99.90
7686;DHT22;3885;51.474;-2.576;2022-10-29T01:41:37;13.80;99.90
7686;DHT22;3885;51.474;-2.576;2022-10-29T01:44:11;13.80;99.90
7686;DHT22;3885;51.474;-2.576;2022-10-29T01:46:44;13.80;99.90
7686;DHT22;3885;51.474;-2.576;2022-10-29T01:49:16;13.80;99.90
7686;DHT22;3885;51.474;-2.576;2022-10-29T01:51:44;13.80;99.90
7686;DHT22;3885;51.474;-2.576;2022-10-29T01:54:12;13.80;99.90
7686;DHT22;3885;51.474;-2.576;2022-10-29T01:56:39;13.80;99.90
7686;DHT22;3885;51.474;-2.576;2022-10-29T01:59:08;13.80;99.90
7686;DHT22;3885;51.474;-2.576;2022-10-29T02:01:46;13.80;99.90
7686;DHT22;3885;51.474;-2.576;2022-10-29T02:07:32;13.80;99.90
7686;DHT22;3885;51.474;-2.576;2022-10-29T02:10:06;13.80;99.90
7686;DHT22;3885;51.474;-2.576;2022-10-29T02:12:39;13.80;99.90
7686;DHT22;3885;51.474;-2.576;2022-10-29T02:15:10;13.90;99.90
7686;DHT22;3885;51.474;-2.576;2022-10-29T02:17:40;13.90;99.90
7686;DHT22;3885;51.474;-2.576;2022-10-29T02:20:09;13.90;99.90
7686;DHT22;3885;51.474;-2.576;2022-10-29T02:22:37;14.00;99.90
7686;DHT22;3885;51.474;-2.576;2022-10-29T02:25:05;13.90;99.90
7686;DHT22;3885;51.474;-2.576;2022-10-29T02:27:32;14.00;99.90
7686;DHT22;3885;51.474;-2.576;2022-10-29T02:29:59;14.00;99.90
7686;DHT22;3885;51.474;-2.576;2022-10-29T02:32:26;14.00;99.90
7686;DHT22;3885;51.474;-2.576;2022-10-29T02:34:54;14.10;99.90
7686;DHT22;3885;51.474;-2.576;2022-10-29T02:37:21;14.10;99.90
7686;DHT22;3885;51.474;-2.576;2022-10-29T02:39:48;14.20;99.90
7686;DHT22;3885;51.474;-2.576;2022-10-29T02:42:15;14.10;99.90
7686;DHT22;3885;51.474;-2.576;2022-10-29T02:44:42;14.20;99.90
7686;DHT22;3885;51.474;-2.576;2022-10-29T02:47:09;14.20;99.90
7686;DHT22;3885;51.474;-2.576;2022-10-29T02:49:36;14.20;99.90
7686;DHT22;3885;51.474;-2.576;2022-10-29T02:52:04;14.20;99.90
7686;DHT22;3885;51.474;-2.576;2022-10-29T02:54:31;14.20;99.90
7686;DHT22;3885;51.474;-2.576;2022-10-29T02:56:58;14.10;99.90
7686;DHT22;3885;51.474;-2.576;2022-10-29T02:59:25;14.20;99.90
7686;DHT22;3885;51.474;-2.576;2022-10-29T03:01:52;14.20;99.90
7686;DHT22;3885;51.474;-2.576;2022-10-29T03:04:19;14.20;99.90
7686;DHT22;3885;51.474;-2.576;2022-10-29T03:06:45;14.20;99.90
7686;DHT22;3885;51.474;-2.576;2022-10-29T03:09:14;14.20;99.90
7686;DHT22;3885;51.474;-2.576;2022-10-29T03:14:08;14.20;99.90
7686;DHT22;3885;51.474;-2.576;2022-10-29T03:16:35;14.20;99.90
7686;DHT22;3885;51.474;-2.576;2022-10-29T03:19:02;14.30;99.90
7686;DHT22;3885;51.474;-2.576;2022-10-29T03:21:29;14.20;99.90
7686;DHT22;3885;51.474;-2.576;2022-10-29T03:23:56;14.30;99.90
7686;DHT22;3885;51.474;-2.576;2022-10-29T03:26:24;14.30;99.90
7686;DHT22;3885;51.474;-2.576;2022-10-29T03:28:51;14.30;99.90
7686;DHT22;3885;51.474;-2.576;2022-10-29T03:31:18;14.30;99.90
7686;DHT22;3885;51.474;-2.576;2022-10-29T03:33:45;14.30;99.90
7686;DHT22;3885;51.474;-2.576;2022-10-29T03:36:12;14.30;99.90
7686;DHT22;3885;51.474;-2.576;2022-10-29T03:38:39;14.40;99.90
7686;DHT22;3885;51.474;-2.576;2022-10-29T03:41:05;14.40;99.90
7686;DHT22;3885;51.474;-2.576;2022-10-29T03:43:36;14.40;99.90
7686;DHT22;3885;51.474;-2.576;2022-10-29T03:46:04;14.40;99.90
7686;DHT22;3885;51.474;-2.576;2022-10-29T03:48:31;14.40;99.90
7686;DHT22;3885;51.474;-2.576;2022-10-29T03:51:00;14.40;99.90
7686;DHT22;3885;51.474;-2.576;2022-10-29T03:53:28;14.40;99.90
7686;DHT22;3885;51.474;-2.576;2022-10-29T03:55:55;14.40;99.90
7686;DHT22;3885;51.474;-2.576;2022-10-29T03:58:23;14.40;99.90
7686;DHT22;3885;51.474;-2.576;2022-10-29T04:00:56;14.40;99.90
7686;DHT22;3885;51.474;-2.576;2022-10-29T04:03:24;14.50;99.90
7686;DHT22;3885;51.474;-2.576;2022-10-29T04:05:52;14.50;99.90
7686;DHT22;3885;51.474;-2.576;2022-10-29T04:08:19;14.50;99.90
7686;DHT22;3885;51.474;-2.576;2022-10-29T04:10:47;14.60;99.90
7686;DHT22;3885;51.474;-2.576;2022-10-29T04:13:15;14.60;99.90
7686;DHT22;3885;51.474;-2.576;2022-10-29T04:15:42;14.60;99.90
7686;DHT22;3885;51.474;-2.576;2022-10-29T04:18:11;14.60;99.90
7686;DHT22;3885;51.474;-2.576;2022-10-29T04:20:39;14.60;99.90
7686;DHT22;3885;51.474;-2.576;2022-10-29T04:23:06;14.60;99.90
7686;DHT22;3885;51.474;-2.576;2022-10-29T04:25:33;14.60;99.90
7686;DHT22;3885;51.474;-2.576;2022-10-29T04:28:00;14.60;99.90
7686;DHT22;3885;51.474;-2.576;2022-10-29T04:30:27;14.60;99.90
7686;DHT22;3885;51.474;-2.576;2022-10-29T04:32:55;14.60;99.90
7686;DHT22;3885;51.474;-2.576;2022-10-29T04:35:25;14.60;99.90
7686;DHT22;3885;51.474;-2.576;2022-10-29T04:37:52;14.50;99.90
7686;DHT22;3885;51.474;-2.576;2022-10-29T04:40:20;14.50;99.90
7686;DHT22;3885;51.474;-2.576;2022-10-29T04:42:48;14.60;99.90
7686;DHT22;3885;51.474;-2.576;2022-10-29T04:45:15;14.60;99.90
7686;DHT22;3885;51.474;-2.576;2022-10-29T04:47:42;14.60;99.90
7686;DHT22;3885;51.474;-2.576;2022-10-29T04:50:09;14.60;99.90
7686;DHT22;3885;51.474;-2.576;2022-10-29T04:52:37;14.60;99.90
7686;DHT22;3885;51.474;-2.576;2022-10-29T04:55:05;14.50;99.90
7686;DHT22;3885;51.474;-2.576;2022-10-29T04:57:32;14.50;99.90
7686;DHT22;3885;51.474;-2.576;2022-10-29T04:59:58;14.50;99.90
7686;DHT22;3885;51.474;-2.576;2022-10-29T05:02:25;14.50;99.90
7686;DHT22;3885;51.474;-2.576;2022-10-29T05:04:52;14.50;99.90
7686;DHT22;3885;51.474;-2.576;2022-10-29T05:07:19;14.50;99.90
7686;DHT22;3885;51.474;-2.576;2022-10-29T05:09:47;14.50;99.90
7686;DHT22;3885;51.474;-2.576;2022-10-29T05:12:14;14.50;99.90
7686;DHT22;3885;51.474;-2.576;2022-10-29T05:14:41;14.50;99.90
7686;DHT22;3885;51.474;-2.576;2022-10-29T05:17:08;14.60;99.90
7686;DHT22;3885;51.474;-2.576;2022-10-29T05:19:35;14.60;99.90
7686;DHT22;3885;51.474;-2.576;2022-10-29T05:22:02;14.50;99.90
7686;DHT22;3885;51.474;-2.576;2022-10-29T05:24:29;14.50;99.90
7686;DHT22;3885;51.474;-2.576;2022-10-29T05:26:57;14.50;99.90
7686;DHT22;3885;51.474;-2.576;2022-10-29T05:29:24;14.50;99.90
7686;DHT22;3885;51.474;-2.576;2022-10-29T05:31:52;14.50;99.90
7686;DHT22;3885;51.474;-2.576;2022-10-29T05:34:19;14.50;99.90
7686;DHT22;3885;51.474;-2.576;2022-10-29T05:36:46;14.60;99.90
7686;DHT22;3885;51.474;-2.576;2022-10-29T05:39:13;14.60;99.90
7686;DHT22;3885;51.474;-2.576;2022-10-29T05:41:40;14.60;99.90
7686;DHT22;3885;51.474;-2.576;2022-10-29T05:44:08;14.60;99.90
7686;DHT22;3885;51.474;-2.576;2022-10-29T05:46:35;14.70;99.90
7686;DHT22;3885;51.474;-2.576;2022-10-29T05:49:02;14.70;99.90
7686;DHT22;3885;51.474;-2.576;2022-10-29T05:51:29;14.70;99.90
7686;DHT22;3885;51.474;-2.576;2022-10-29T05:53:56;14.80;99.90
7686;DHT22;3885;51.474;-2.576;2022-10-29T05:56:23;14.80;99.90
7686;DHT22;3885;51.474;-2.576;2022-10-29T05:58:51;14.80;99.90
7686;DHT22;3885;51.474;-2.576;2022-10-29T06:01:19;14.80;99.90
7686;DHT22;3885;51.474;-2.576;2022-10-29T06:03:46;14.80;99.90
7686;DHT22;3885;51.474;-2.576;2022-10-29T06:06:13;14.80;99.90
7686;DHT22;3885;51.474;-2.576;2022-10-29T06:08:40;14.80;99.90
7686;DHT22;3885;51.474;-2.576;2022-10-29T06:11:07;14.90;99.90
7686;DHT22;3885;51.474;-2.576;2022-10-29T06:13:34;14.90;99.90
7686;DHT22;3885;51.474;-2.576;2022-10-29T06:16:01;14.90;99.90
7686;DHT22;3885;51.474;-2.576;2022-10-29T06:18:29;14.90;99.90
7686;DHT22;3885;51.474;-2.576;2022-10-29T06:20:59;15.00;99.90
7686;DHT22;3885;51.474;-2.576;2022-10-29T06:23:26;14.90;99.90
7686;DHT22;3885;51.474;-2.576;2022-10-29T06:25:53;15.00;99.90
7686;DHT22;3885;51.474;-2.576;2022-10-29T06:28:20;15.00;99.90
7686;DHT22;3885;51.474;-2.576;2022-10-29T06:30:48;15.10;99.90
7686;DHT22;3885;51.474;-2.576;2022-10-29T06:33:16;15.10;99.90
7686;DHT22;3885;51.474;-2.576;2022-10-29T06:35:45;15.10;99.90
7686;DHT22;3885;51.474;-2.576;2022-10-29T06:38:12;15.10;99.90
7686;DHT22;3885;51.474;-2.576;2022-10-29T06:40:40;15.10;99.90
7686;DHT22;3885;51.474;-2.576;2022-10-29T06:43:08;15.10;99.90
7686;DHT22;3885;51.474;-2.576;2022-10-29T06:45:36;15.10;99.90
7686;DHT22;3885;51.474;-2.576;2022-10-29T06:48:03;15.20;99.90
7686;DHT22;3885;51.474;-2.576;2022-10-29T06:50:30;15.20;99.90
7686;DHT22;3885;51.474;-2.576;2022-10-29T06:53:00;15.20;99.90
7686;DHT22;3885;51.474;-2.576;2022-10-29T06:55:27;15.20;99.90
7686;DHT22;3885;51.474;-2.576;2022-10-29T06:57:56;15.30;99.90
7686;DHT22;3885;51.474;-2.576;2022-10-29T07:00:23;15.30;99.90
7686;DHT22;3885;51.474;-2.576;2022-10-29T07:02:50;15.30;99.90
7686;DHT22;3885;51.474;-2.576;2022-10-29T07:05:17;15.40;99.90
7686;DHT22;3885;51.474;-2.576;2022-10-29T07:07:44;15.30;99.90
7686;DHT22;3885;51.474;-2.576;2022-10-29T07:10:14;15.30;99.90
7686;DHT22;3885;51.474;-2.576;2022-10-29T07:12:41;15.30;99.90
7686;DHT22;3885;51.474;-2.576;2022-10-29T07:15:10;15.30;99.90
7686;DHT22;3885;51.474;-2.576;2022-10-29T07:17:37;15.30;99.90
7686;DHT22;3885;51.474;-2.576;2022-10-29T07:20:05;15.30;99.90
7686;DHT22;3885;51.474;-2.576;2022-10-29T07:22:33;15.30;99.90
7686;DHT22;3885;51.474;-2.576;2022-10-29T07:25:00;15.40;99.90
7686;DHT22;3885;51.474;-2.576;2022-10-29T07:27:28;15.40;99.90
7686;DHT22;3885;51.474;-2.576;2022-10-29T07:29:55;15.30;99.90
7686;DHT22;3885;51.474;-2.576;2022-10-29T07:32:22;15.40;99.90
7686;DHT22;3885;51.474;-2.576;2022-10-29T07:34:49;15.40;99.90
7686;DHT22;3885;51.474;-2.576;2022-10-29T07:37:16;15.40;99.90
7686;DHT22;3885;51.474;-2.576;2022-10-29T07:39:43;15.40;99.90
7686;DHT22;3885;51.474;-2.576;2022-10-29T07:42:10;15.40;99.90
7686;DHT22;3885;51.474;-2.576;2022-10-29T07:44:38;15.40;99.90
7686;DHT22;3885;51.474;-2.576;2022-10-29T07:47:05;15.50;99.90
7686;DHT22;3885;51.474;-2.576;2022-10-29T07:49:32;15.60;99.90
7686;DHT22;3885;51.474;-2.576;2022-10-29T07:51:59;15.60;99.90
7686;DHT22;3885;51.474;-2.576;2022-10-29T07:54:26;15.60;99.90
7686;DHT22;3885;51.474;-2.576;2022-10-29T07:56:53;15.70;99.90
7686;DHT22;3885;51.474;-2.576;2022-10-29T07:59:20;15.80;99.90
7686;DHT22;3885;51.474;-2.576;2022-10-29T08:01:48;15.80;99.90
7686;DHT22;3885;51.474;-2.576;2022-10-29T08:04:15;15.80;99.90
7686;DHT22;3885;51.474;-2.576;2022-10-29T08:06:42;15.80;99.90
7686;DHT22;3885;51.474;-2.576;2022-10-29T08:09:09;15.90;99.90
7686;DHT22;3885;51.474;-2.576;2022-10-29T08:11:36;16.10;99.90
7686;DHT22;3885;51.474;-2.576;2022-10-29T08:14:04;16.20;99.90
7686;DHT22;3885;51.474;-2.576;2022-10-29T08:16:31;16.10;99.90
7686;DHT22;3885;51.474;-2.576;2022-10-29T08:18:59;16.20;99.90
7686;DHT22;3885;51.474;-2.576;2022-10-29T08:21:26;16.30;99.90
7686;DHT22;3885;51.474;-2.576;2022-10-29T08:23:53;16.30;99.90
7686;DHT22;3885;51.474;-2.576;2022-10-29T08:26:20;16.40;99.90
7686;DHT22;3885;51.474;-2.576;2022-10-29T08:28:47;16.40;99.90
7686;DHT22;3885;51.474;-2.576;2022-10-29T08:31:14;16.40;99.90
7686;DHT22;3885;51.474;-2.576;2022-10-29T08:36:10;16.50;99.90
7686;DHT22;3885;51.474;-2.576;2022-10-29T08:38:37;16.60;99.90
7686;DHT22;3885;51.474;-2.576;2022-10-29T08:41:34;16.60;99.90
7686;DHT22;3885;51.474;-2.576;2022-10-29T08:44:27;16.80;99.90
7686;DHT22;3885;51.474;-2.576;2022-10-29T08:47:04;16.80;99.90
7686;DHT22;3885;51.474;-2.576;2022-10-29T08:49:38;16.80;99.90
7686;DHT22;3885;51.474;-2.576;2022-10-29T08:52:12;16.80;99.90
7686;DHT22;3885;51.474;-2.576;2022-10-29T08:54:47;16.90;99.90
7686;DHT22;3885;51.474;-2.576;2022-10-29T08:57:18;17.00;99.90
7686;DHT22;3885;51.474;-2.576;2022-10-29T08:59:58;17.00;99.90
7686;DHT22;3885;51.474;-2.576;2022-10-29T09:02:27;17.00;99.90
7686;DHT22;3885;51.474;-2.576;2022-10-29T09:04:55;17.10;99.90
7686;DHT22;3885;51.474;-2.576;2022-10-29T09:07:38;17.10;99.90
7686;DHT22;3885;51.474;-2.576;2022-10-29T09:10:16;17.10;99.90
7686;DHT22;3885;51.474;-2.576;2022-10-29T09:12:55;17.20;99.90
7686;DHT22;3885;51.474;-2.576;2022-10-29T09:15:43;17.20;99.90
7686;DHT22;3885;51.474;-2.576;2022-10-29T09:18:24;17.30;99.90
7686;DHT22;3885;51.474;-2.576;2022-10-29T09:20:59;17.30;99.90
7686;DHT22;3885;51.474;-2.576;2022-10-29T09:23:44;17.40;99.90
7686;DHT22;3885;51.474;-2.576;2022-10-29T09:26:16;17.40;99.90
7686;DHT22;3885;51.474;-2.576;2022-10-29T09:28:54;17.50;99.90
7686;DHT22;3885;51.474;-2.576;2022-10-29T09:31:31;17.50;99.90
7686;DHT22;3885;51.474;-2.576;2022-10-29T09:34:04;17.60;99.90
7686;DHT22;3885;51.474;-2.576;2022-10-29T09:36:34;17.60;99.90
7686;DHT22;3885;51.474;-2.576;2022-10-29T09:39:09;17.60;99.90
7686;DHT22;3885;51.474;-2.576;2022-10-29T09:41:38;17.70;99.90
7686;DHT22;3885;51.474;-2.576;2022-10-29T09:44:13;17.70;99.90
7686;DHT22;3885;51.474;-2.576;2022-10-29T09:46:46;17.70;99.90
7686;DHT22;3885;51.474;-2.576;2022-10-29T09:49:29;17.80;99.90
7686;DHT22;3885;51.474;-2.576;2022-10-29T09:52:02;18.00;99.90
7686;DHT22;3885;51.474;-2.576;2022-10-29T09:54:32;18.10;99.90
7686;DHT22;3885;51.474;-2.576;2022-10-29T09:57:01;18.20;99.90
7686;DHT22;3885;51.474;-2.576;2022-10-29T09:59:31;18.20;99.90
7686;DHT22;3885;51.474;-2.576;2022-10-29T10:04:28;18.20;99.90
7686;DHT22;3885;51.474;-2.576;2022-10-29T10:07:07;18.30;99.90
7686;DHT22;3885;51.474;-2.576;2022-10-29T10:09:52;18.30;99.90
7686;DHT22;3885;51.474;-2.576;2022-10-29T10:12:21;18.40;99.90
7686;DHT22;3885;51.474;-2.576;2022-10-29T10:14:59;18.40;99.90
7686;DHT22;3885;51.474;-2.576;2022-10-29T10:17:27;18.40;99.90
7686;DHT22;3885;51.474;-2.576;2022-10-29T10:19:54;18.60;99.90
7686;DHT22;3885;51.474;-2.576;2022-10-29T10:22:22;18.70;99.90
7686;DHT22;3885;51.474;-2.576;2022-10-29T10:24:51;18.90;99.90
7686;DHT22;3885;51.474;-2.576;2022-10-29T10:27:27;18.90;99.90
7686;DHT22;3885;51.474;-2.576;2022-10-29T10:30:13;18.90;99.90
7686;DHT22;3885;51.474;-2.576;2022-10-29T10:32:42;19.10;99.90
7686;DHT22;3885;51.474;-2.576;2022-10-29T10:35:29;19.20;99.90
7686;DHT22;3885;51.474;-2.576;2022-10-29T10:37:56;19.20;99.90
7686;DHT22;3885;51.474;-2.576;2022-10-29T10:40:26;19.30;99.90
7686;DHT22;3885;51.474;-2.576;2022-10-29T10:42:53;19.50;99.90
7686;DHT22;3885;51.474;-2.576;2022-10-29T10:45:27;19.50;99.90
7686;DHT22;3885;51.474;-2.576;2022-10-29T10:47:57;19.50;99.90
7686;DHT22;3885;51.474;-2.576;2022-10-29T10:50:27;19.60;99.90
7686;DHT22;3885;51.474;-2.576;2022-10-29T10:52:56;19.70;99.90
7686;DHT22;3885;51.474;-2.576;2022-10-29T10:55:28;19.80;99.90
7686;DHT22;3885;51.474;-2.576;2022-10-29T10:58:02;19.90;99.90
7686;DHT22;3885;51.474;-2.576;2022-10-29T11:00:34;19.90;99.90
7686;DHT22;3885;51.474;-2.576;2022-10-29T11:03:09;19.90;99.90
7686;DHT22;3885;51.474;-2.576;2022-10-29T11:05:40;19.90;99.90
7686;DHT22;3885;51.474;-2.576;2022-10-29T11:08:14;19.90;99.90
7686;DHT22;3885;51.474;-2.576;2022-10-29T11:10:49;19.90;99.90
7686;DHT22;3885;51.474;-2.576;2022-10-29T11:13:19;19.90;99.90
7686;DHT22;3885;51.474;-2.576;2022-10-29T11:15:51;20.00;99.90
7686;DHT22;3885;51.474;-2.576;2022-10-29T11:18:24;20.00;99.90
7686;DHT22;3885;51.474;-2.576;2022-10-29T11:21:03;20.00;99.90
7686;DHT22;3885;51.474;-2.576;2022-10-29T11:23:38;20.00;99.90
7686;DHT22;3885;51.474;-2.576;2022-10-29T11:26:13;20.10;99.90
7686;DHT22;3885;51.474;-2.576;2022-10-29T11:28:47;20.10;99.90
7686;DHT22;3885;51.474;-2.576;2022-10-29T11:31:21;20.10;99.90
7686;DHT22;3885;51.474;-2.576;2022-10-29T11:33:59;20.00;99.90
7686;DHT22;3885;51.474;-2.576;2022-10-29T11:36:31;20.10;99.90
7686;DHT22;3885;51.474;-2.576;2022-10-29T11:39:06;20.00;99.90
7686;DHT22;3885;51.474;-2.576;2022-10-29T11:41:38;20.10;99.90
7686;DHT22;3885;51.474;-2.576;2022-10-29T11:44:09;20.10;99.90
7686;DHT22;3885;51.474;-2.576;2022-10-29T11:46:45;20.10;99.90
7686;DHT22;3885;51.474;-2.576;2022-10-29T11:49:32;20.30;99.90
7686;DHT22;3885;51.474;-2.576;2022-10-29T11:52:05;20.50;99.90
7686;DHT22;3885;51.474;-2.576;2022-10-29T11:54:45;20.60;99.90
7686;DHT22;3885;51.474;-2.576;2022-10-29T11:57:21;20.70;99.90
7686;DHT22;3885;51.474;-2.576;2022-10-29T12:00:10;20.70;99.90
7686;DHT22;3885;51.474;-2.576;2022-10-29T12:03:05;20.60;99.90
7686;DHT22;3885;51.474;-2.576;2022-10-29T12:05:40;20.60;99.90
7686;DHT22;3885;51.474;-2.576;2022-10-29T12:08:21;20.50;99.90
7686;DHT22;3885;51.474;-2.576;2022-10-29T12:10:56;20.50;99.90
7686;DHT22;3885;51.474;-2.576;2022-10-29T12:13:37;20.50;99.90
7686;DHT22;3885;51.474;-2.576;2022-10-29T12:16:19;20.60;99.90
7686;DHT22;3885;51.474;-2.576;2022-10-29T12:18:55;20.50;99.90
7686;DHT22;3885;51.474;-2.576;2022-10-29T12:21:31;20.60;99.90
7686;DHT22;3885;51.474;-2.576;2022-10-29T12:24:14;20.70;99.90
7686;DHT22;3885;51.474;-2.576;2022-10-29T12:26:44;20.80;99.90
7686;DHT22;3885;51.474;-2.576;2022-10-29T12:29:18;20.90;99.90
7686;DHT22;3885;51.474;-2.576;2022-10-29T12:31:51;21.10;99.90
7686;DHT22;3885;51.474;-2.576;2022-10-29T12:34:27;21.20;99.90
7686;DHT22;3885;51.474;-2.576;2022-10-29T12:37:04;21.30;99.90
7686;DHT22;3885;51.474;-2.576;2022-10-29T12:39:35;21.40;99.90
7686;DHT22;3885;51.474;-2.576;2022-10-29T12:42:05;21.60;99.90
7686;DHT22;3885;51.474;-2.576;2022-10-29T12:44:39;21.60;99.90
7686;DHT22;3885;51.474;-2.576;2022-10-29T12:47:12;21.80;99.90
7686;DHT22;3885;51.474;-2.576;2022-10-29T12:49:52;21.90;99.90
7686;DHT22;3885;51.474;-2.576;2022-10-29T12:52:29;21.90;99.90
7686;DHT22;3885;51.474;-2.576;2022-10-29T12:55:00;21.90;99.90
7686;DHT22;3885;51.474;-2.576;2022-10-29T12:57:31;21.90;99.90
7686;DHT22;3885;51.474;-2.576;2022-10-29T13:03:00;21.80;99.90
7686;DHT22;3885;51.474;-2.576;2022-10-29T13:05:41;21.60;99.90
7686;DHT22;3885;51.474;-2.576;2022-10-29T13:08:32;21.40;99.90
7686;DHT22;3885;51.474;-2.576;2022-10-29T13:10:59;21.40;99.90
7686;DHT22;3885;51.474;-2.576;2022-10-29T13:13:51;21.10;99.90
7686;DHT22;3885;51.474;-2.576;2022-10-29T13:16:24;21.10;99.90
7686;DHT22;3885;51.474;-2.576;2022-10-29T13:19:04;21.10;99.90
7686;DHT22;3885;51.474;-2.576;2022-10-29T13:21:55;21.00;99.90
7686;DHT22;3885;51.474;-2.576;2022-10-29T13:24:22;21.10;99.90
7686;DHT22;3885;51.474;-2.576;2022-10-29T13:26:54;21.10;99.90
7686;DHT22;3885;51.474;-2.576;2022-10-29T13:29:47;21.20;99.90
7686;DHT22;3885;51.474;-2.576;2022-10-29T13:32:34;21.40;99.90
7686;DHT22;3885;51.474;-2.576;2022-10-29T13:35:13;21.30;99.90
7686;DHT22;3885;51.474;-2.576;2022-10-29T13:37:52;21.30;99.90
7686;DHT22;3885;51.474;-2.576;2022-10-29T13:40:55;21.30;99.90
7686;DHT22;3885;51.474;-2.576;2022-10-29T13:43:26;21.30;99.90
7686;DHT22;3885;51.474;-2.576;2022-10-29T13:48:49;21.10;99.90
7686;DHT22;3885;51.474;-2.576;2022-10-29T13:51:23;21.10;99.90
7686;DHT22;3885;51.474;-2.576;2022-10-29T13:53:56;21.00;99.90
7686;DHT22;3885;51.474;-2.576;2022-10-29T13:56:29;20.70;99.90
7686;DHT22;3885;51.474;-2.576;2022-10-29T13:59:01;20.70;99.90
7686;DHT22;3885;51.474;-2.576;2022-10-29T14:01:31;20.70;99.90
7686;DHT22;3885;51.474;-2.576;2022-10-29T14:04:02;20.70;99.90
7686;DHT22;3885;51.474;-2.576;2022-10-29T14:06:35;20.70;99.90
7686;DHT22;3885;51.474;-2.576;2022-10-29T14:09:12;20.70;99.90
7686;DHT22;3885;51.474;-2.576;2022-10-29T14:11:43;20.60;99.90
7686;DHT22;3885;51.474;-2.576;2022-10-29T14:14:22;20.60;99.90
7686;DHT22;3885;51.474;-2.576;2022-10-29T14:17:08;20.60;99.90
7686;DHT22;3885;51.474;-2.576;2022-10-29T14:19:36;20.40;99.90
7686;DHT22;3885;51.474;-2.576;2022-10-29T14:22:18;20.40;99.90
7686;DHT22;3885;51.474;-2.576;2022-10-29T14:27:14;20.30;99.90
7686;DHT22;3885;51.474;-2.576;2022-10-29T14:29:41;20.30;99.90
7686;DHT22;3885;51.474;-2.576;2022-10-29T14:32:12;20.30;99.90
7686;DHT22;3885;51.474;-2.576;2022-10-29T14:34:40;20.40;99.90
7686;DHT22;3885;51.474;-2.576;2022-10-29T14:37:13;20.50;99.90
7686;DHT22;3885;51.474;-2.576;2022-10-29T14:39:45;20.40;99.90
7686;DHT22;3885;51.474;-2.576;2022-10-29T14:42:16;20.40;99.90
7686;DHT22;3885;51.474;-2.576;2022-10-29T14:44:48;20.30;99.90
7686;DHT22;3885;51.474;-2.576;2022-10-29T14:47:22;20.30;99.90
7686;DHT22;3885;51.474;-2.576;2022-10-29T14:49:51;20.20;99.90
7686;DHT22;3885;51.474;-2.576;2022-10-29T14:52:27;20.10;99.90
7686;DHT22;3885;51.474;-2.576;2022-10-29T14:54:58;20.00;99.90
7686;DHT22;3885;51.474;-2.576;2022-10-29T14:57:28;20.00;99.90
7686;DHT22;3885;51.474;-2.576;2022-10-29T14:59:58;20.00;99.90
7686;DHT22;3885;51.474;-2.576;2022-10-29T15:02:31;19.80;99.90
7686;DHT22;3885;51.474;-2.576;2022-10-29T15:04:59;19.90;99.90
7686;DHT22;3885;51.474;-2.576;2022-10-29T15:07:29;19.80;99.90
7686;DHT22;3885;51.474;-2.576;2022-10-29T15:10:17;19.70;99.90
7686;DHT22;3885;51.474;-2.576;2022-10-29T15:12:45;19.70;99.90
7686;DHT22;3885;51.474;-2.576;2022-10-29T15:15:22;19.70;99.90
7686;DHT22;3885;51.474;-2.576;2022-10-29T15:17:52;19.60;99.90
7686;DHT22;3885;51.474;-2.576;2022-10-29T15:20:22;19.60;99.90
7686;DHT22;3885;51.474;-2.576;2022-10-29T15:22:52;19.60;99.90
7686;DHT22;3885;51.474;-2.576;2022-10-29T15:25:23;19.40;99.90
7686;DHT22;3885;51.474;-2.576;2022-10-29T15:27:53;19.40;99.90
7686;DHT22;3885;51.474;-2.576;2022-10-29T15:30:26;19.30;99.90
7686;DHT22;3885;51.474;-2.576;2022-10-29T15:32:57;19.20;99.90
7686;DHT22;3885;51.474;-2.576;2022-10-29T15:35:24;19.20;99.90
7686;DHT22;3885;51.474;-2.576;2022-10-29T15:37:51;19.10;99.90
7686;DHT22;3885;51.474;-2.576;2022-10-29T15:40:19;19.00;99.90
7686;DHT22;3885;51.474;-2.576;2022-10-29T15:42:48;19.00;99.90
7686;DHT22;3885;51.474;-2.576;2022-10-29T15:45:23;18.90;99.90
7686;DHT22;3885;51.474;-2.576;2022-10-29T15:47:53;18.80;99.90
7686;DHT22;3885;51.474;-2.576;2022-10-29T15:50:23;18.70;99.90
7686;DHT22;3885;51.474;-2.576;2022-10-29T15:52:53;18.70;99.90
7686;DHT22;3885;51.474;-2.576;2022-10-29T15:55:24;18.70;99.90
7686;DHT22;3885;51.474;-2.576;2022-10-29T15:57:53;18.60;99.90
7686;DHT22;3885;51.474;-2.576;2022-10-29T16:00:22;18.50;99.90
7686;DHT22;3885;51.474;-2.576;2022-10-29T16:02:49;18.50;99.90
7686;DHT22;3885;51.474;-2.576;2022-10-29T16:05:17;18.40;99.90
7686;DHT22;3885;51.474;-2.576;2022-10-29T16:07:45;18.30;99.90
7686;DHT22;3885;51.474;-2.576;2022-10-29T16:10:15;18.20;99.90
7686;DHT22;3885;51.474;-2.576;2022-10-29T16:12:43;18.20;99.90
7686;DHT22;3885;51.474;-2.576;2022-10-29T16:15:16;18.20;99.90
7686;DHT22;3885;51.474;-2.576;2022-10-29T16:20:13;18.10;99.90
7686;DHT22;3885;51.474;-2.576;2022-10-29T16:22:41;18.10;99.90
7686;DHT22;3885;51.474;-2.576;2022-10-29T16:25:23;18.00;99.90
7686;DHT22;3885;51.474;-2.576;2022-10-29T16:27:50;18.00;99.90
7686;DHT22;3885;51.474;-2.576;2022-10-29T16:30:19;18.00;99.90
7686;DHT22;3885;51.474;-2.576;2022-10-29T16:32:47;18.00;99.90
7686;DHT22;3885;51.474;-2.576;2022-10-29T16:35:18;17.90;99.90